createdAt,value
2023-02-14T00:00:08.291Z,22.97
2023-02-14T00:03:11.770Z,21.57
2023-02-14T00:06:16.056Z,23.50
2023-02-14T00:09:20.805Z,22.17
2023-02-14T00:12:24.093Z,22.27
2023-02-14T00:15:28.726Z,23.77
2023-02-14T00:18:45.920Z,22.33
2023-02-14T00:21:50.328Z,21.33
2023-02-14T00:24:53.610Z,22.07
2023-02-14T00:27:56.940Z,22.00
2023-02-14T00:31:02.790Z,22.63
2023-02-14T00:34:06.697Z,21.57
2023-02-14T00:37:09.812Z,22.83
2023-02-14T00:40:15.880Z,23.90
2023-02-14T00:43:18.931Z,22.77
2023-02-14T00:46:25.090Z,22.63
2023-02-14T00:49:29.023Z,22.13
2023-02-14T00:52:35.362Z,23.00
2023-02-14T00:55:38.855Z,22.50
2023-02-14T00:58:42.735Z,20.23
2023-02-14T01:01:47.294Z,22.30
2023-02-14T01:04:50.465Z,22.73
2023-02-14T01:07:55.178Z,23.17
2023-02-14T01:11:08.506Z,22.17
2023-02-14T01:14:11.855Z,22.43
2023-02-14T01:17:16.976Z,20.53
2023-02-14T01:20:20.325Z,21.23
2023-02-14T01:23:25.672Z,21.67
2023-02-14T01:26:29.949Z,20.93
2023-02-14T01:29:33.219Z,20.47
2023-02-14T01:32:38.185Z,21.73
2023-02-14T01:35:41.539Z,22.30
2023-02-14T01:38:48.321Z,23.50
2023-02-14T01:41:53.880Z,21.23
2023-02-14T01:45:02.179Z,20.77
2023-02-14T01:48:07.008Z,22.77
2023-02-14T01:51:10.477Z,22.63
2023-02-14T01:54:14.306Z,22.00
2023-02-14T01:57:20.445Z,21.00
2023-02-14T02:00:41.566Z,20.73
2023-02-14T02:03:50.569Z,21.77
2023-02-14T02:06:58.301Z,21.17
2023-02-14T02:10:08.751Z,21.80
2023-02-14T02:13:19.285Z,20.53
2023-02-14T02:16:48.428Z,23.23
2023-02-14T02:21:07.125Z,21.53
2023-02-14T02:24:33.319Z,21.13
2023-02-14T02:27:56.778Z,20.93
2023-02-14T02:31:22.323Z,22.20
2023-02-14T02:35:17.227Z,19.23
2023-02-14T02:38:45.010Z,19.07
2023-02-14T02:42:04.316Z,20.50
2023-02-14T02:45:15.459Z,18.37
2023-02-14T02:48:24.790Z,21.00
2023-02-14T02:51:56.494Z,23.03
2023-02-14T02:55:06.973Z,23.03
2023-02-14T02:58:10.371Z,20.87
2023-02-14T03:01:18.466Z,22.50
2023-02-14T03:04:40.382Z,20.80
2023-02-14T03:07:45.339Z,23.03
2023-02-14T03:10:48.916Z,21.03
2023-02-14T03:14:10.872Z,21.13
2023-02-14T03:17:43.798Z,22.43
2023-02-14T03:20:55.485Z,23.13
2023-02-14T03:24:09.305Z,22.13
2023-02-14T03:27:19.387Z,23.10
2023-02-14T03:30:36.682Z,22.33
2023-02-14T03:33:48.874Z,22.50
2023-02-14T03:37:00.999Z,23.17
2023-02-14T03:40:11.202Z,21.70
2023-02-14T03:43:20.270Z,22.77
2023-02-14T03:46:28.928Z,24.00
2023-02-14T03:49:36.690Z,22.93
2023-02-14T03:52:44.821Z,21.90
2023-02-14T03:55:56.972Z,23.10
2023-02-14T03:59:10.620Z,23.03
2023-02-14T04:02:18.987Z,21.43
2023-02-14T04:05:26.587Z,23.10
2023-02-14T04:08:30.861Z,23.83
2023-02-14T04:11:35.902Z,23.60
2023-02-14T04:14:39.267Z,22.83
2023-02-14T04:18:00.134Z,25.40
2023-02-14T04:21:03.190Z,20.53
2023-02-14T04:24:12.392Z,23.43
2023-02-14T04:27:26.058Z,21.57
2023-02-14T04:30:34.013Z,20.93
2023-02-14T04:33:37.463Z,22.40
2023-02-14T04:36:43.348Z,22.63
2023-02-14T04:39:47.006Z,22.90
2023-02-14T04:42:51.352Z,21.23
2023-02-14T04:45:54.456Z,22.27
2023-02-14T04:48:57.496Z,22.57
2023-02-14T04:52:00.822Z,25.00
2023-02-14T04:55:04.447Z,24.17
2023-02-14T04:58:09.297Z,23.37
2023-02-14T05:01:12.423Z,22.17
2023-02-14T05:04:15.850Z,21.63
2023-02-14T05:07:19.407Z,21.63
2023-02-14T05:10:25.645Z,20.97
2023-02-14T05:13:30.164Z,22.17
2023-02-14T05:16:33.488Z,22.67
2023-02-14T05:19:36.693Z,22.27
2023-02-14T05:22:39.972Z,22.27
2023-02-14T05:25:45.792Z,22.57
2023-02-14T05:28:50.436Z,20.00
2023-02-14T05:31:53.658Z,21.37
2023-02-14T05:34:57.056Z,21.47
2023-02-14T05:38:00.382Z,21.90
2023-02-14T05:41:03.826Z,21.67
2023-02-14T05:44:11.358Z,24.50
2023-02-14T05:47:14.615Z,24.10
2023-02-14T05:50:18.509Z,22.97
2023-02-14T05:53:21.648Z,22.50
2023-02-14T05:56:24.819Z,21.77
2023-02-14T05:59:29.584Z,20.90
2023-02-14T06:02:32.700Z,21.30
2023-02-14T06:05:36.243Z,21.77
2023-02-14T06:08:39.415Z,20.87
2023-02-14T06:11:42.712Z,21.87
2023-02-14T06:14:47.085Z,20.23
2023-02-14T06:17:53.917Z,20.17
2023-02-14T06:20:57.568Z,23.30
2023-02-14T06:24:01.053Z,22.33
2023-02-14T06:27:04.452Z,23.33
2023-02-14T06:30:11.358Z,24.63
2023-02-14T06:33:14.590Z,23.83
2023-02-14T06:36:18.014Z,20.70
2023-02-14T06:39:21.511Z,22.70
2023-02-14T06:42:24.629Z,24.80
2023-02-14T06:45:29.105Z,21.23
2023-02-14T06:48:32.189Z,23.87
2023-02-14T06:51:35.421Z,21.73
2023-02-14T06:54:38.480Z,22.50
2023-02-14T06:57:43.596Z,22.10
2023-02-14T07:00:48.716Z,21.73
2023-02-14T07:03:51.906Z,21.80
2023-02-14T07:06:55.036Z,21.27
2023-02-14T07:09:58.137Z,22.10
2023-02-14T07:13:01.911Z,22.60
2023-02-14T07:16:07.053Z,21.87
2023-02-14T07:19:10.321Z,22.37
2023-02-14T07:22:13.527Z,23.87
2023-02-14T07:25:16.756Z,20.97
2023-02-14T07:28:20.141Z,23.70
2023-02-14T07:31:24.636Z,23.40
2023-02-14T07:34:28.187Z,23.53
2023-02-14T07:37:33.258Z,24.90
2023-02-14T07:40:36.396Z,24.17
2023-02-14T07:43:39.856Z,24.70
2023-02-14T07:46:44.826Z,25.20
2023-02-14T07:49:51.041Z,25.13
2023-02-14T07:52:54.417Z,24.87
2023-02-14T07:55:57.918Z,24.93
2023-02-14T07:59:03.149Z,26.60
2023-02-14T08:02:07.869Z,25.90
2023-02-14T08:05:11.231Z,26.27
2023-02-14T08:08:14.398Z,24.23
2023-02-14T08:11:38.238Z,25.63
2023-02-14T08:14:42.276Z,26.13
2023-02-14T08:17:46.688Z,22.93
2023-02-14T08:20:50.683Z,26.60
2023-02-14T08:23:54.159Z,24.87
2023-02-14T08:26:57.787Z,27.67
2023-02-14T08:30:00.945Z,26.10
2023-02-14T08:33:06.147Z,24.60
2023-02-14T08:36:09.521Z,26.83
2023-02-14T08:39:12.839Z,27.73
2023-02-14T08:42:16.024Z,27.90
2023-02-14T08:45:19.215Z,28.33
2023-02-14T08:48:25.312Z,26.90
2023-02-14T08:51:29.179Z,27.67
2023-02-14T08:54:32.482Z,26.30
2023-02-14T08:57:35.579Z,27.63
2023-02-14T09:00:39.202Z,26.47
2023-02-14T09:03:44.215Z,26.33
2023-02-14T09:06:48.514Z,27.40
2023-02-14T09:09:51.597Z,26.80
2023-02-14T09:12:54.849Z,26.37
2023-02-14T09:15:58.008Z,27.60
2023-02-14T09:19:02.795Z,26.40
2023-02-14T09:22:08.039Z,26.33
2023-02-14T09:25:11.519Z,25.93
2023-02-14T09:28:15.175Z,26.70
2023-02-14T09:31:21.227Z,28.00
2023-02-14T09:34:26.195Z,26.03
2023-02-14T09:37:47.414Z,28.10
2023-02-14T09:40:53.509Z,27.03
2023-02-14T09:44:02.841Z,24.97
2023-02-14T09:47:15.534Z,25.87
2023-02-14T09:50:25.442Z,26.63
2023-02-14T09:53:31.969Z,28.43
2023-02-14T09:56:51.353Z,25.83
2023-02-14T10:00:05.169Z,24.13
2023-02-14T10:03:44.121Z,25.00
2023-02-14T10:06:54.548Z,25.57
2023-02-14T10:10:03.079Z,24.07
2023-02-14T10:13:15.791Z,24.67
2023-02-14T10:16:27.216Z,24.23
2023-02-14T10:19:35.924Z,24.73
2023-02-14T10:22:47.853Z,23.30
2023-02-14T10:25:59.231Z,23.97
2023-02-14T10:29:06.649Z,26.07
2023-02-14T10:32:15.740Z,25.63
2023-02-14T10:35:32.608Z,23.93
2023-02-14T10:38:49.608Z,23.37
2023-02-14T10:41:59.638Z,23.37
2023-02-14T10:45:17.315Z,23.87
2023-02-14T10:48:31.103Z,24.20
2023-02-14T10:51:41.129Z,23.03
2023-02-14T10:54:53.051Z,22.40
2023-02-14T10:57:57.694Z,22.40
2023-02-14T11:01:06.981Z,23.80
2023-02-14T11:04:13.162Z,23.40
2023-02-14T11:07:18.804Z,24.17
2023-02-14T11:10:29.722Z,21.87
2023-02-14T11:13:38.904Z,23.70
2023-02-14T11:16:42.554Z,23.73
2023-02-14T11:19:59.337Z,21.90
2023-02-14T11:23:21.417Z,23.77
2023-02-14T11:26:31.887Z,21.43
2023-02-14T11:29:43.711Z,21.10
2023-02-14T11:32:56.108Z,22.30
2023-02-14T11:35:59.642Z,24.50
2023-02-14T11:39:25.829Z,24.03
2023-02-14T11:42:43.853Z,23.63
2023-02-14T11:45:49.037Z,21.60
2023-02-14T11:48:59.841Z,23.17
2023-02-14T11:52:11.821Z,23.17
2023-02-14T11:55:27.205Z,24.17
2023-02-14T11:58:37.199Z,22.70
2023-02-14T12:01:41.466Z,21.73
2023-02-14T12:04:46.971Z,22.97
2023-02-14T12:07:53.717Z,22.40
2023-02-14T12:11:06.020Z,22.80
2023-02-14T12:14:23.037Z,22.87
2023-02-14T12:17:34.260Z,21.13
2023-02-14T12:20:45.420Z,23.23
2023-02-14T12:24:00.228Z,23.27
2023-02-14T12:27:20.021Z,22.00
2023-02-14T12:30:30.859Z,23.47
2023-02-14T12:33:34.149Z,22.67
2023-02-14T12:37:05.385Z,22.03
2023-02-14T12:40:23.011Z,22.70
2023-02-14T12:43:47.951Z,23.97
2023-02-14T12:47:19.464Z,23.13
2023-02-14T12:50:35.937Z,21.83
2023-02-14T12:53:52.133Z,22.13
2023-02-14T12:57:07.567Z,24.20
2023-02-14T13:00:28.959Z,22.83
2023-02-14T13:03:51.602Z,23.47
2023-02-14T13:07:05.627Z,22.07
2023-02-14T13:10:22.942Z,23.70
2023-02-14T13:13:36.906Z,23.13
2023-02-14T13:16:47.861Z,23.20
2023-02-14T13:20:03.320Z,22.60
2023-02-14T13:23:13.577Z,22.17
2023-02-14T13:26:20.713Z,24.83
2023-02-14T13:29:27.688Z,21.97
2023-02-14T13:32:36.260Z,22.83
2023-02-14T13:35:42.027Z,23.80
2023-02-14T13:38:48.795Z,23.83
2023-02-14T13:41:52.025Z,21.37
2023-02-14T13:44:55.185Z,21.97
2023-02-14T13:48:05.795Z,22.57
2023-02-14T13:51:11.424Z,24.33
2023-02-14T13:54:35.775Z,25.17
2023-02-14T13:57:41.320Z,23.17
2023-02-14T14:00:46.871Z,24.07
2023-02-14T14:04:00.360Z,22.17
2023-02-14T14:07:30.720Z,24.10
2023-02-14T14:10:46.171Z,23.13
2023-02-14T14:13:57.872Z,22.87
2023-02-14T14:17:02.382Z,24.70
2023-02-14T14:20:42.674Z,23.70
2023-02-14T14:23:46.015Z,25.33
2023-02-14T14:26:52.151Z,24.10
2023-02-14T14:29:58.610Z,23.97
2023-02-14T14:33:15.078Z,24.77
2023-02-14T14:36:25.995Z,22.13
2023-02-14T14:39:32.709Z,22.90
2023-02-14T14:42:39.967Z,21.93
2023-02-14T14:45:48.153Z,21.27
2023-02-14T14:48:57.252Z,21.40
2023-02-14T14:52:01.861Z,21.10
2023-02-14T14:55:07.690Z,22.77
2023-02-14T14:58:35.422Z,22.60
2023-02-14T15:01:45.963Z,22.47
2023-02-14T15:04:49.387Z,20.73
2023-02-14T15:07:54.173Z,22.63
2023-02-14T15:11:08.120Z,21.60
2023-02-14T15:14:17.813Z,21.13
2023-02-14T15:17:26.799Z,23.20
2023-02-14T15:20:30.036Z,21.43
2023-02-14T15:23:35.384Z,21.23
2023-02-14T15:26:38.724Z,21.90
2023-02-14T15:29:41.884Z,20.37
2023-02-14T15:32:52.135Z,21.83
2023-02-14T15:35:57.320Z,21.50
2023-02-14T15:39:04.852Z,22.30
2023-02-14T15:42:26.090Z,24.07
2023-02-14T15:45:32.165Z,20.57
2023-02-14T15:48:36.432Z,21.43
2023-02-14T15:51:40.983Z,21.70
2023-02-14T15:54:47.504Z,23.57
2023-02-14T15:58:01.514Z,24.17
2023-02-14T16:01:05.726Z,23.13
2023-02-14T16:04:08.946Z,21.50
2023-02-14T16:07:25.380Z,21.77
2023-02-14T16:10:33.256Z,21.87
2023-02-14T16:13:39.255Z,23.73
2023-02-14T16:17:03.502Z,23.57
2023-02-14T16:20:29.688Z,21.90
2023-02-14T16:23:33.314Z,22.47
2023-02-14T16:26:41.027Z,21.07
2023-02-14T16:29:44.162Z,20.57
2023-02-14T16:32:53.557Z,20.40
2023-02-14T16:36:06.185Z,21.53
2023-02-14T16:39:16.863Z,21.87
2023-02-14T16:42:21.828Z,21.77
2023-02-14T16:45:25.005Z,21.63
2023-02-14T16:48:32.033Z,21.70
2023-02-14T16:51:38.721Z,21.90
2023-02-14T16:54:41.943Z,21.70
2023-02-14T16:57:49.302Z,22.90
2023-02-14T17:00:52.615Z,21.43
2023-02-14T17:03:57.397Z,22.90
2023-02-14T17:07:05.779Z,22.90
2023-02-14T17:10:13.170Z,23.03
2023-02-14T17:13:23.136Z,21.47
2023-02-14T17:16:26.305Z,22.97
2023-02-14T17:19:29.567Z,22.27
2023-02-14T17:22:34.438Z,21.43
2023-02-14T17:25:38.672Z,22.83
2023-02-14T17:28:43.415Z,23.30
2023-02-14T17:31:46.776Z,21.97
2023-02-14T17:34:50.194Z,23.40
2023-02-14T17:37:53.238Z,24.57
2023-02-14T17:40:56.294Z,23.87
2023-02-14T17:44:00.853Z,22.70
2023-02-14T17:47:08.190Z,22.13
2023-02-14T17:50:13.029Z,21.53
2023-02-14T17:53:17.833Z,21.10
2023-02-14T17:56:24.542Z,22.33
2023-02-14T17:59:29.097Z,21.00
2023-02-14T18:02:32.424Z,21.30
2023-02-14T18:05:37.551Z,22.43
2023-02-14T18:08:46.241Z,22.27
2023-02-14T18:11:50.454Z,22.67
2023-02-14T18:14:56.176Z,21.40
2023-02-14T18:17:59.298Z,21.53
2023-02-14T18:21:04.643Z,20.97
2023-02-14T18:24:08.612Z,21.77
2023-02-14T18:27:15.865Z,20.90
2023-02-14T18:30:20.622Z,21.23
2023-02-14T18:33:26.748Z,20.43
2023-02-14T18:36:31.701Z,23.03
2023-02-14T18:39:35.053Z,20.63
2023-02-14T18:42:38.225Z,21.87
2023-02-14T18:45:42.738Z,21.27
2023-02-14T18:48:46.145Z,20.87
2023-02-14T18:51:49.984Z,20.83
2023-02-14T18:54:53.346Z,21.70
2023-02-14T18:57:56.580Z,21.17
2023-02-14T19:01:09.313Z,22.63
2023-02-14T19:04:17.064Z,22.30
2023-02-14T19:07:20.100Z,21.03
2023-02-14T19:10:23.352Z,23.10
2023-02-14T19:13:29.253Z,23.90
2023-02-14T19:16:38.177Z,23.87
2023-02-14T19:19:41.307Z,23.00
2023-02-14T19:22:44.374Z,24.40
2023-02-14T19:25:47.493Z,25.57
2023-02-14T19:32:19.083Z,23.83
2023-02-14T19:35:22.297Z,24.00
2023-02-14T19:38:25.445Z,23.13
2023-02-14T19:41:34.303Z,26.73
2023-02-14T19:44:37.447Z,25.83
2023-02-14T19:47:47.197Z,28.73
2023-02-14T19:50:50.800Z,25.60
2023-02-14T19:53:55.669Z,26.43
2023-02-14T19:56:59.165Z,26.57
2023-02-14T20:00:02.420Z,27.40
2023-02-14T20:03:16.080Z,28.40
2023-02-14T20:06:19.485Z,26.47
2023-02-14T20:09:23.731Z,28.53
2023-02-14T20:12:29.777Z,27.80
2023-02-14T20:15:35.651Z,29.53
2023-02-14T20:18:40.141Z,29.00
2023-02-14T20:21:45.071Z,28.07
2023-02-14T20:24:48.196Z,31.70
2023-02-14T20:27:55.287Z,28.83
2023-02-14T20:30:58.686Z,28.47
2023-02-14T20:34:04.090Z,29.53
2023-02-14T20:37:07.529Z,30.07
2023-02-14T20:40:12.962Z,29.53
2023-02-14T20:43:18.329Z,29.30
2023-02-14T20:46:23.609Z,30.60
2023-02-14T20:49:32.672Z,28.03
2023-02-14T20:52:37.285Z,30.53
2023-02-14T20:55:44.500Z,28.93
2023-02-14T20:58:47.774Z,30.00
2023-02-14T21:01:52.212Z,28.73
2023-02-14T21:05:00.115Z,31.07
2023-02-14T21:08:03.504Z,30.07
2023-02-14T21:11:09.306Z,28.10
2023-02-14T21:14:12.826Z,30.80
2023-02-14T21:17:16.500Z,28.27
2023-02-14T21:20:21.316Z,30.07
2023-02-14T21:23:24.537Z,29.77
2023-02-14T21:26:30.982Z,27.23
2023-02-14T21:29:34.038Z,26.87
2023-02-14T21:32:37.481Z,27.33
2023-02-14T21:35:41.968Z,30.07
2023-02-14T21:38:46.092Z,26.83
2023-02-14T21:41:50.217Z,28.53
2023-02-14T21:45:10.599Z,25.47
2023-02-14T21:48:34.277Z,27.57
2023-02-14T21:51:39.682Z,28.63
2023-02-14T21:54:43.018Z,27.40
2023-02-14T21:57:46.652Z,28.67
2023-02-14T22:00:49.718Z,27.43
2023-02-14T22:03:53.553Z,30.63
2023-02-14T22:06:58.026Z,28.47
2023-02-14T22:10:01.313Z,31.20
2023-02-14T22:13:04.483Z,30.53
2023-02-14T22:16:11.751Z,32.00
2023-02-14T22:19:16.516Z,28.83
2023-02-14T22:22:20.988Z,31.00
2023-02-14T22:25:26.218Z,30.20
2023-02-14T22:28:29.272Z,30.10
2023-02-14T22:31:36.817Z,32.07
2023-02-14T22:34:40.097Z,29.77
2023-02-14T22:37:48.609Z,31.43
2023-02-14T22:40:51.789Z,29.63
2023-02-14T22:43:55.459Z,29.27
2023-02-14T22:46:58.616Z,29.53
2023-02-14T22:50:01.736Z,29.40
2023-02-14T22:53:06.685Z,28.67
2023-02-14T22:56:15.983Z,27.70
2023-02-14T22:59:21.242Z,26.87
2023-02-14T23:02:24.436Z,26.20
2023-02-14T23:05:27.783Z,25.50
2023-02-14T23:08:32.336Z,26.60
2023-02-14T23:11:38.063Z,27.93
2023-02-14T23:14:58.433Z,27.00
2023-02-14T23:18:19.329Z,26.50
2023-02-14T23:21:36.358Z,26.03
2023-02-14T23:24:41.525Z,27.30
2023-02-14T23:27:48.168Z,27.70
2023-02-14T23:30:51.568Z,28.10
2023-02-14T23:33:54.678Z,26.77
2023-02-14T23:36:58.808Z,30.03
2023-02-14T23:40:04.002Z,29.57
2023-02-14T23:43:07.060Z,29.00
2023-02-14T23:46:10.343Z,28.13
2023-02-14T23:49:13.691Z,27.33
2023-02-14T23:52:17.034Z,26.87
2023-02-14T23:55:21.703Z,26.97
2023-02-14T23:58:24.842Z,25.93
